Assembly, North Carolina
Current Conditions -  °F | °C
As of 4:12 AM on Tuesday 21 Oct 2014 (Local Time) from KAVL Reporting Station
Haze Haze  
Wind Chill: 44°   Ceiling: Unl
Heat Index: 44°   Visibility: 3mi
Dew Point: 42°   Wind: 3mph
Humidity: 93%   Direction: 320°NW
Pressure: 29.99"   Gusts: NA
Location:  35.5251°N, 82.9723°W
Report Text: KAVL 210812Z AUTO 32003KT 3SM BR SCT002 07/06 A2999 RMK AO2 T00670056
Loading
Personal Weather Stations






























Interactive Weather Map
Tropical Storm Tracking
New forecast layout! Learn more

10-Day Weather Forecast

Advertisements
Track Severe Weather on mobile